Time;durP1;ratioP1;P1;durP2;ratioP2;P2;SDS_P1;SDS_P2;PMS_P1;PMS_P2;Temp;Humidity;BMP_temperature;BMP_pressure;BME280_temperature;BME280_humidity;BME280_pressure;Samples;Min_cycle;Max_cycle;Signal;HPM_P1;HPM_P2
2023/10/29 00:00:55;;;;;;;6.30;2.35;;;10.60;99.90;;;;;;5029386;28;20098;-83
2023/10/29 00:03:21;;;;;;;8.43;3.17;;;10.60;99.90;;;;;;5013891;28;20042;-84
2023/10/29 00:05:56;;;;;;;10.15;2.50;;;10.60;99.90;;;;;;5001555;28;20380;-82
2023/10/29 00:08:21;;;;;;;6.75;2.45;;;10.60;99.90;;;;;;5005440;28;20045;-82
2023/10/29 00:10:47;;;;;;;10.45;3.08;;;10.60;99.90;;;;;;5004305;28;20026;-83
2023/10/29 00:13:13;;;;;;;7.90;2.90;;;10.50;99.90;;;;;;5019284;28;20116;-86
2023/10/29 00:15:38;;;;;;;6.40;2.40;;;10.60;99.90;;;;;;5005973;28;20025;-82
2023/10/29 00:18:12;;;;;;;9.40;2.50;;;10.50;99.90;;;;;;5000639;28;20300;-82
2023/10/29 00:20:41;;;;;;;6.40;2.38;;;10.50;99.90;;;;;;5004747;28;20065;-83
2023/10/29 00:23:07;;;;;;;6.05;2.25;;;10.50;99.90;;;;;;5004618;28;20026;-83
2023/10/29 00:25:36;;;;;;;4.38;2.30;;;10.50;99.90;;;;;;5003088;28;20144;-83
2023/10/29 00:28:01;;;;;;;5.60;2.20;;;10.50;99.90;;;;;;5006618;28;20042;-84
2023/10/29 00:30:27;;;;;;;3.60;2.00;;;10.50;99.90;;;;;;4984769;28;20035;-83
2023/10/29 00:32:55;;;;;;;5.13;2.20;;;10.50;99.90;;;;;;5007526;28;20026;-83
2023/10/29 00:35:21;;;;;;;10.27;2.53;;;10.50;99.90;;;;;;5008090;28;20052;-85
2023/10/29 00:37:49;;;;;;;9.18;2.22;;;10.50;99.90;;;;;;5004742;28;20037;-83
2023/10/29 00:40:15;;;;;;;8.20;2.70;;;10.50;99.90;;;;;;5002744;28;20030;-83
2023/10/29 00:42:41;;;;;;;9.13;3.47;;;10.50;99.90;;;;;;5000539;28;20076;-84
2023/10/29 00:45:07;;;;;;;8.18;2.55;;;10.50;99.90;;;;;;5007152;28;20390;-82
2023/10/29 00:47:33;;;;;;;13.07;2.05;;;10.50;99.90;;;;;;5007648;28;20061;-83
2023/10/29 00:49:58;;;;;;;5.20;2.50;;;10.50;99.90;;;;;;5003985;28;20455;-84
2023/10/29 00:52:26;;;;;;;9.52;2.42;;;10.50;99.90;;;;;;4988177;28;20022;-82
2023/10/29 00:54:52;;;;;;;4.50;2.08;;;10.50;99.90;;;;;;5006448;28;20030;-85
2023/10/29 00:57:18;;;;;;;5.63;2.78;;;10.50;99.90;;;;;;5006998;28;20441;-83
2023/10/29 00:59:44;;;;;;;8.52;2.72;;;10.50;99.90;;;;;;5008201;28;20030;-84
2023/10/29 01:02:10;;;;;;;10.57;2.75;;;10.50;99.90;;;;;;5007140;28;20014;-84
2023/10/29 01:04:36;;;;;;;6.18;2.47;;;10.50;99.90;;;;;;5026640;28;20060;-82
2023/10/29 01:07:02;;;;;;;9.50;2.42;;;10.60;99.90;;;;;;5028947;28;20132;-82
2023/10/29 01:09:29;;;;;;;6.03;2.63;;;10.60;99.90;;;;;;5009681;28;20126;-83
2023/10/29 01:11:58;;;;;;;7.70;2.25;;;10.60;99.90;;;;;;5036627;28;20371;-84
2023/10/29 01:14:23;;;;;;;11.57;2.50;;;10.70;99.90;;;;;;5019890;28;20100;-83
2023/10/29 01:16:50;;;;;;;9.18;2.30;;;10.70;99.90;;;;;;5026977;28;20037;-81
2023/10/29 01:19:15;;;;;;;11.70;2.50;;;10.70;99.90;;;;;;5024842;28;20497;-85
2023/10/29 01:21:41;;;;;;;11.38;2.05;;;10.70;99.90;;;;;;5033025;28;20022;-83
2023/10/29 01:24:07;;;;;;;10.00;3.05;;;10.70;99.90;;;;;;5028867;28;20542;-85
2023/10/29 01:26:35;;;;;;;5.93;2.42;;;10.70;99.90;;;;;;5028003;28;20038;-84
2023/10/29 01:29:04;;;;;;;8.75;2.20;;;10.80;99.90;;;;;;5020657;28;20073;-83
2023/10/29 01:31:29;;;;;;;7.70;2.42;;;10.70;99.90;;;;;;5021760;28;20026;-84
2023/10/29 01:33:58;;;;;;;6.85;2.17;;;10.70;99.90;;;;;;5024945;28;20553;-85
2023/10/29 01:36:24;;;;;;;8.85;2.72;;;10.70;99.90;;;;;;5021436;28;20021;-85
2023/10/29 01:38:49;;;;;;;8.48;2.47;;;10.70;99.90;;;;;;5027630;28;20037;-83
2023/10/29 01:41:16;;;;;;;10.40;2.58;;;10.70;99.90;;;;;;5029974;28;20041;-83
2023/10/29 01:43:42;;;;;;;9.25;2.63;;;10.80;99.90;;;;;;5027413;28;20040;-85
2023/10/29 01:46:08;;;;;;;6.60;2.53;;;10.70;99.90;;;;;;5031035;28;20079;-84
2023/10/29 01:48:33;;;;;;;9.88;2.40;;;10.80;99.90;;;;;;5030835;28;20030;-83
2023/10/29 01:51:08;;;;;;;12.02;2.88;;;10.80;99.90;;;;;;5032269;28;20041;-83
2023/10/29 01:53:33;;;;;;;9.10;2.50;;;10.80;99.90;;;;;;5015890;28;20026;-82
2023/10/29 01:55:59;;;;;;;10.43;2.78;;;10.80;99.90;;;;;;5033669;28;20116;-83
2023/10/29 01:58:27;;;;;;;5.82;2.03;;;10.90;99.90;;;;;;5024315;28;20053;-82
2023/10/29 02:00:55;;;;;;;11.93;2.60;;;10.80;99.90;;;;;;5024995;28;20025;-83
2023/10/29 02:03:20;;;;;;;6.40;2.45;;;10.80;99.90;;;;;;5027255;28;20041;-84
2023/10/29 02:05:46;;;;;;;11.95;3.17;;;10.90;99.90;;;;;;5024869;28;20484;-83
2023/10/29 02:08:11;;;;;;;7.65;2.65;;;10.90;99.90;;;;;;5025468;28;20033;-84
2023/10/29 02:10:37;;;;;;;4.30;2.30;;;10.80;99.90;;;;;;5033546;28;20630;-84
2023/10/29 02:13:03;;;;;;;11.07;2.20;;;10.90;99.90;;;;;;5029875;28;20026;-81
2023/10/29 02:15:28;;;;;;;8.70;2.53;;;10.90;99.90;;;;;;5017641;28;20120;-82
2023/10/29 02:17:54;;;;;;;5.75;2.20;;;10.90;99.90;;;;;;5025685;28;20033;-82
2023/10/29 02:20:23;;;;;;;11.88;2.90;;;10.80;99.90;;;;;;5023875;28;20026;-83
2023/10/29 02:22:48;;;;;;;17.52;3.03;;;10.90;99.90;;;;;;5026217;28;20055;-82
2023/10/29 02:25:14;;;;;;;6.40;2.10;;;10.90;99.90;;;;;;5029169;28;20474;-83
2023/10/29 02:27:43;;;;;;;7.32;2.90;;;10.90;99.90;;;;;;5020921;28;20125;-85
2023/10/29 02:30:11;;;;;;;12.27;3.28;;;10.90;99.90;;;;;;5027193;28;20372;-81
2023/10/29 02:32:37;;;;;;;7.30;2.33;;;10.90;99.90;;;;;;5021650;28;20030;-82
2023/10/29 02:35:03;;;;;;;4.95;2.38;;;10.90;99.90;;;;;;5023111;28;20108;-83
2023/10/29 02:37:28;;;;;;;6.85;2.22;;;10.90;99.90;;;;;;5026753;28;20080;-82
2023/10/29 02:39:54;;;;;;;4.70;2.53;;;10.90;99.90;;;;;;5030181;28;20056;-82
2023/10/29 02:42:20;;;;;;;9.00;2.53;;;10.90;99.90;;;;;;5024218;28;20533;-81
2023/10/29 02:44:45;;;;;;;11.70;2.70;;;10.80;99.90;;;;;;5026222;28;20026;-84
2023/10/29 02:47:14;;;;;;;6.85;2.58;;;10.90;99.90;;;;;;5023833;28;20021;-82
2023/10/29 02:49:40;;;;;;;5.35;2.15;;;10.90;99.90;;;;;;5031795;28;20136;-82
2023/10/29 02:52:08;;;;;;;8.85;2.63;;;10.90;99.90;;;;;;5034012;28;20112;-83
2023/10/29 02:54:34;;;;;;;11.80;2.80;;;11.00;99.90;;;;;;5023745;28;20394;-85
2023/10/29 02:57:00;;;;;;;7.45;2.35;;;11.00;99.90;;;;;;5028850;28;20025;-79
2023/10/29 02:59:26;;;;;;;13.65;2.22;;;11.00;99.90;;;;;;5028590;28;20474;-86
2023/10/29 03:01:51;;;;;;;7.03;2.13;;;11.00;99.90;;;;;;5024187;28;20037;-84
2023/10/29 03:04:17;;;;;;;10.30;2.38;;;11.00;99.90;;;;;;5025027;28;20037;-82
2023/10/29 03:06:45;;;;;;;7.55;2.20;;;11.00;99.90;;;;;;5017846;28;20469;-83
2023/10/29 03:09:11;;;;;;;3.22;2.00;;;11.00;99.90;;;;;;5020373;28;20409;-84
2023/10/29 03:11:37;;;;;;;7.20;1.88;;;11.00;99.90;;;;;;5025951;28;20029;-84
2023/10/29 03:14:05;;;;;;;8.00;1.95;;;11.00;99.90;;;;;;5023863;28;20017;-82
2023/10/29 03:16:31;;;;;;;7.15;2.30;;;11.00;99.90;;;;;;5033738;28;20036;-86
2023/10/29 03:18:59;;;;;;;13.70;2.83;;;11.00;99.90;;;;;;5022850;28;20413;-83
2023/10/29 03:21:24;;;;;;;5.38;2.15;;;11.10;99.90;;;;;;5026547;28;20052;-84
2023/10/29 03:23:50;;;;;;;7.43;2.17;;;11.00;99.90;;;;;;5007673;28;20489;-83
2023/10/29 03:26:16;;;;;;;8.38;2.30;;;11.10;99.90;;;;;;5024981;28;20010;-82
2023/10/29 03:28:42;;;;;;;8.27;2.10;;;11.10;99.90;;;;;;5026042;28;20450;-85
2023/10/29 03:31:15;;;;;;;14.25;2.40;;;11.00;99.90;;;;;;5017914;28;20061;-84
2023/10/29 03:33:42;;;;;;;9.55;2.55;;;11.00;99.90;;;;;;5024534;28;20378;-84
2023/10/29 03:36:12;;;;;;;9.07;2.17;;;11.00;99.90;;;;;;5026888;28;20076;-85
2023/10/29 03:38:38;;;;;;;9.18;2.58;;;11.00;99.90;;;;;;5021448;28;20549;-85
2023/10/29 03:41:04;;;;;;;5.50;2.53;;;11.00;99.90;;;;;;5018562;28;20113;-84
2023/10/29 03:43:29;;;;;;;10.40;2.47;;;11.00;99.90;;;;;;5027858;28;20451;-85
2023/10/29 03:45:55;;;;;;;5.35;2.30;;;11.00;99.90;;;;;;5025721;28;20029;-84
2023/10/29 03:48:21;;;;;;;11.27;2.03;;;11.00;99.90;;;;;;5025894;28;20076;-84
2023/10/29 03:50:46;;;;;;;6.38;2.00;;;11.00;99.90;;;;;;5028489;28;20036;-85
2023/10/29 03:53:12;;;;;;;5.72;2.15;;;11.00;99.90;;;;;;5026245;28;20109;-86
2023/10/29 03:55:41;;;;;;;10.13;2.70;;;11.00;99.90;;;;;;5035171;28;20036;-85
2023/10/29 03:58:12;;;;;;;9.50;2.42;;;11.00;99.90;;;;;;5029975;28;20551;-85
2023/10/29 04:00:37;;;;;;;10.85;2.75;;;11.00;99.90;;;;;;5028311;28;20033;-85
2023/10/29 04:03:03;;;;;;;10.90;2.00;;;11.00;99.90;;;;;;5025783;28;20052;-83
2023/10/29 04:05:29;;;;;;;8.38;1.95;;;11.00;99.90;;;;;;5030127;28;20025;-84
2023/10/29 04:07:54;;;;;;;8.00;2.08;;;11.00;99.90;;;;;;5023826;28;20353;-94
2023/10/29 04:10:20;;;;;;;8.60;1.83;;;11.00;99.90;;;;;;5024712;28;20021;-84
2023/10/29 04:12:45;;;;;;;8.13;2.53;;;11.00;99.90;;;;;;5027305;28;20454;-83
2023/10/29 04:15:21;;;;;;;12.32;2.38;;;10.90;99.90;;;;;;5021852;28;20386;-85
2023/10/29 04:17:48;;;;;;;5.72;1.77;;;10.90;99.90;;;;;;5018605;28;20037;-85
2023/10/29 04:20:14;;;;;;;6.13;2.13;;;10.90;99.90;;;;;;5026502;28;20029;-83
2023/10/29 04:22:42;;;;;;;10.32;2.05;;;11.00;99.90;;;;;;5029559;28;20040;-83
2023/10/29 04:25:08;;;;;;;5.72;2.22;;;11.00;99.90;;;;;;5032698;28;20470;-83
2023/10/29 04:27:33;;;;;;;11.48;2.92;;;10.90;99.90;;;;;;5027195;28;20159;-83
2023/10/29 04:29:59;;;;;;;6.63;2.00;;;10.90;99.90;;;;;;5032879;28;20029;-83
2023/10/29 04:32:26;;;;;;;7.32;1.98;;;11.00;99.90;;;;;;5031724;28;20044;-84
2023/10/29 04:34:52;;;;;;;8.07;2.10;;;11.00;99.90;;;;;;5032873;28;20385;-82
2023/10/29 04:37:17;;;;;;;4.65;2.13;;;11.00;99.90;;;;;;5027453;28;20029;-83
2023/10/29 04:39:46;;;;;;;8.60;2.10;;;11.00;99.90;;;;;;5027807;28;20488;-84
2023/10/29 04:42:11;;;;;;;6.80;2.17;;;11.00;99.90;;;;;;5025081;28;20028;-84
2023/10/29 04:44:40;;;;;;;6.20;1.98;;;11.00;99.90;;;;;;5026195;28;20474;-83
2023/10/29 04:47:05;;;;;;;7.15;1.95;;;11.00;99.90;;;;;;5031512;28;20106;-83
2023/10/29 04:49:34;;;;;;;2.80;1.60;;;11.00;99.90;;;;;;5023502;28;20792;-82
2023/10/29 04:52:00;;;;;;;9.68;1.70;;;11.10;99.90;;;;;;5030682;28;20033;-84
2023/10/29 04:54:26;;;;;;;7.15;2.03;;;11.10;99.90;;;;;;5019910;28;20021;-83
2023/10/29 04:56:56;;;;;;;5.00;1.70;;;11.10;99.90;;;;;;5024219;28;20032;-83
2023/10/29 04:59:25;;;;;;;7.38;1.80;;;11.10;99.90;;;;;;5020736;28;20034;-84
2023/10/29 05:01:51;;;;;;;8.60;2.00;;;11.10;99.90;;;;;;5035116;28;20018;-83
2023/10/29 05:04:17;;;;;;;7.10;2.13;;;11.10;99.90;;;;;;5025728;28;20437;-84
2023/10/29 05:06:46;;;;;;;3.22;1.90;;;11.20;99.90;;;;;;5026654;28;20091;-84
2023/10/29 05:09:11;;;;;;;7.05;2.08;;;11.20;99.90;;;;;;5030659;28;20420;-84
2023/10/29 05:11:37;;;;;;;5.20;2.00;;;11.30;99.90;;;;;;5028697;28;20025;-82
2023/10/29 05:14:03;;;;;;;10.45;3.40;;;11.20;99.90;;;;;;5022913;28;20032;-83
2023/10/29 05:16:28;;;;;;;5.28;1.80;;;11.20;99.90;;;;;;5024057;28;20029;-81
2023/10/29 05:18:54;;;;;;;8.60;2.72;;;11.20;99.90;;;;;;4998288;28;20168;-81
2023/10/29 05:21:20;;;;;;;6.60;2.08;;;11.20;99.90;;;;;;5024185;28;20021;-82
2023/10/29 05:23:46;;;;;;;14.80;1.92;;;11.30;99.90;;;;;;5024932;28;20548;-86
2023/10/29 05:26:11;;;;;;;4.35;1.50;;;11.20;99.90;;;;;;5031855;28;20024;-84
2023/10/29 05:28:40;;;;;;;5.75;1.83;;;11.30;99.90;;;;;;5028993;28;20029;-83
2023/10/29 05:31:06;;;;;;;5.25;2.00;;;11.30;99.90;;;;;;5027569;28;20041;-83
2023/10/29 05:33:32;;;;;;;5.82;2.03;;;11.20;99.90;;;;;;5027176;28;20045;-82
2023/10/29 05:35:58;;;;;;;7.68;2.28;;;11.20;99.90;;;;;;5032926;28;20025;-83
2023/10/29 05:38:23;;;;;;;11.32;1.70;;;11.30;99.90;;;;;;5038446;28;20029;-82
2023/10/29 05:40:49;;;;;;;5.38;2.60;;;11.30;99.90;;;;;;5004774;28;20057;-81
2023/10/29 05:43:15;;;;;;;4.03;1.55;;;11.30;99.90;;;;;;5032996;28;20037;-83
2023/10/29 05:45:45;;;;;;;8.27;1.83;;;11.30;99.90;;;;;;5027034;28;20521;-83
2023/10/29 05:48:10;;;;;;;8.80;1.80;;;11.30;99.90;;;;;;5028395;28;20118;-81
2023/10/29 05:50:37;;;;;;;5.00;1.98;;;11.30;99.90;;;;;;5028521;28;20121;-81
2023/10/29 05:53:03;;;;;;;4.10;1.88;;;11.30;99.90;;;;;;5029411;28;20033;-80
2023/10/29 05:55:30;;;;;;;5.97;1.80;;;11.20;99.90;;;;;;5030936;28;20036;-84
2023/10/29 05:57:56;;;;;;;6.57;2.00;;;11.20;99.90;;;;;;5024769;28;20073;-81
2023/10/29 06:00:25;;;;;;;8.73;2.00;;;11.20;99.90;;;;;;5029137;28;20056;-81
2023/10/29 06:02:53;;;;;;;11.63;2.10;;;11.20;99.90;;;;;;5020292;28;20504;-82
2023/10/29 06:05:19;;;;;;;8.10;1.92;;;11.20;99.90;;;;;;5031512;28;20025;-81
2023/10/29 06:07:48;;;;;;;7.78;2.33;;;11.20;99.90;;;;;;5030438;28;20470;-80
2023/10/29 06:10:13;;;;;;;5.72;2.05;;;11.30;99.90;;;;;;5027571;28;20103;-83
2023/10/29 06:12:40;;;;;;;6.40;1.40;;;11.30;99.90;;;;;;5025950;28;20163;-84
2023/10/29 06:15:16;;;;;;;7.32;1.90;;;11.30;99.90;;;;;;5025185;28;20021;-81
2023/10/29 06:17:42;;;;;;;8.65;1.50;;;11.30;99.90;;;;;;5022685;28;20148;-84
2023/10/29 06:20:10;;;;;;;6.47;1.80;;;11.20;99.90;;;;;;5026377;28;20116;-81
2023/10/29 06:22:39;;;;;;;7.88;2.90;;;11.20;99.90;;;;;;5020534;28;20041;-81
2023/10/29 06:25:08;;;;;;;8.57;1.75;;;11.20;99.90;;;;;;5018571;28;20040;-82
2023/10/29 06:27:34;;;;;;;9.02;2.13;;;11.10;99.90;;;;;;5000633;28;20030;-84
2023/10/29 06:29:59;;;;;;;6.07;1.80;;;11.10;99.90;;;;;;5025815;28;20470;-81
2023/10/29 06:32:28;;;;;;;4.20;1.83;;;11.10;99.90;;;;;;5027353;28;20428;-82
2023/10/29 06:34:54;;;;;;;8.52;1.63;;;11.10;99.90;;;;;;5025496;28;20414;-81
2023/10/29 06:37:19;;;;;;;4.35;2.17;;;11.20;99.90;;;;;;5017194;28;20021;-82
2023/10/29 06:39:48;;;;;;;3.88;1.83;;;11.10;99.90;;;;;;5026559;28;20064;-81
2023/10/29 06:42:13;;;;;;;9.98;1.75;;;11.20;99.90;;;;;;5020435;28;20029;-83
2023/10/29 06:44:39;;;;;;;5.88;2.08;;;11.10;99.90;;;;;;5022621;28;20433;-84
2023/10/29 06:47:08;;;;;;;9.23;1.85;;;11.20;99.90;;;;;;5021263;28;20067;-85
2023/10/29 06:49:36;;;;;;;7.55;1.50;;;11.10;99.90;;;;;;5020329;28;20163;-81
2023/10/29 06:52:04;;;;;;;2.50;1.63;;;11.20;99.90;;;;;;5004822;28;20476;-81
2023/10/29 06:54:30;;;;;;;8.07;2.00;;;11.20;99.90;;;;;;5025354;28;20118;-82
2023/10/29 06:56:59;;;;;;;10.57;2.17;;;11.20;99.90;;;;;;5019267;28;20079;-82
2023/10/29 06:59:25;;;;;;;7.68;1.95;;;11.30;99.90;;;;;;5033697;28;20552;-82
2023/10/29 07:01:52;;;;;;;8.90;2.03;;;11.30;99.90;;;;;;5019119;28;20540;-84
2023/10/29 07:04:17;;;;;;;5.72;1.77;;;11.30;99.90;;;;;;5003134;28;20092;-82
2023/10/29 07:06:46;;;;;;;8.18;2.10;;;11.30;99.90;;;;;;5022466;28;20482;-81
2023/10/29 07:09:12;;;;;;;3.38;1.50;;;11.40;99.90;;;;;;5016724;28;20029;-81
2023/10/29 07:11:41;;;;;;;2.35;1.60;;;11.40;99.90;;;;;;5021175;28;20033;-82
2023/10/29 07:14:06;;;;;;;6.65;1.92;;;11.40;99.90;;;;;;5007171;28;20033;-83
2023/10/29 07:16:32;;;;;;;3.38;1.85;;;11.40;99.90;;;;;;5026733;28;20096;-82
2023/10/29 07:18:58;;;;;;;7.85;2.28;;;11.50;99.90;;;;;;5005718;28;20052;-82
2023/10/29 07:21:23;;;;;;;4.50;2.60;;;11.50;99.90;;;;;;5007904;28;20034;-82
2023/10/29 07:23:49;;;;;;;6.60;1.70;;;11.50;99.90;;;;;;5022041;28;20060;-81
2023/10/29 07:26:18;;;;;;;6.30;1.70;;;11.50;99.90;;;;;;5018126;28;20052;-81
2023/10/29 07:28:43;;;;;;;3.13;1.40;;;11.60;99.90;;;;;;5011415;28;20104;-84
2023/10/29 07:31:09;;;;;;;10.63;1.88;;;11.70;99.90;;;;;;5011499;28;20112;-85
2023/10/29 07:33:34;;;;;;;2.63;1.40;;;11.70;99.90;;;;;;5024160;28;20097;-81
2023/10/29 07:36:04;;;;;;;8.73;1.77;;;11.80;99.90;;;;;;5028934;28;20429;-80
2023/10/29 07:38:31;;;;;;;7.88;1.98;;;11.90;99.90;;;;;;5012180;28;20043;-83
2023/10/29 07:40:56;;;;;;;4.53;1.50;;;11.90;99.90;;;;;;5023006;28;20489;-81
2023/10/29 07:43:22;;;;;;;6.47;1.30;;;12.00;99.90;;;;;;5024788;28;20029;-86
2023/10/29 07:45:51;;;;;;;9.95;1.85;;;12.10;99.90;;;;;;5023671;28;20034;-82
2023/10/29 07:48:18;;;;;;;3.95;1.40;;;12.20;99.90;;;;;;5024946;28;20022;-81
2023/10/29 07:50:52;;;;;;;8.43;1.60;;;12.30;99.90;;;;;;5024987;28;20368;-87
2023/10/29 07:53:19;;;;;;;4.03;1.50;;;12.30;99.90;;;;;;5020838;28;20323;-83
2023/10/29 07:55:45;;;;;;;30.80;2.80;;;12.40;99.90;;;;;;5016555;28;20083;-85
2023/10/29 07:58:11;;;;;;;10.82;1.50;;;12.40;99.90;;;;;;5017134;28;20057;-83
2023/10/29 08:00:36;;;;;;;6.55;1.25;;;12.40;99.90;;;;;;5006516;28;20083;-81
2023/10/29 08:03:02;;;;;;;8.00;1.52;;;12.50;99.90;;;;;;5022067;28;20046;-85
2023/10/29 08:05:28;;;;;;;3.28;1.42;;;12.50;99.90;;;;;;5024699;28;20037;-89
2023/10/29 08:07:53;;;;;;;8.30;1.45;;;12.50;99.90;;;;;;5019081;28;20037;-81
2023/10/29 08:10:19;;;;;;;5.35;1.70;;;12.40;99.90;;;;;;5026243;28;20037;-80
2023/10/29 08:12:44;;;;;;;8.35;1.50;;;12.50;99.90;;;;;;5021212;28;20112;-84
2023/10/29 08:15:10;;;;;;;13.38;2.05;;;12.60;99.90;;;;;;5024269;28;20531;-90
2023/10/29 08:17:39;;;;;;;19.45;4.38;;;12.60;99.90;;;;;;5026329;28;20083;-81
2023/10/29 08:20:09;;;;;;;10.25;1.42;;;12.70;99.90;;;;;;5022908;28;20060;-82
2023/10/29 08:22:34;;;;;;;5.53;1.40;;;12.60;99.90;;;;;;5018599;28;20033;-83
2023/10/29 08:25:00;;;;;;;2.60;1.27;;;12.70;99.90;;;;;;5024804;28;20379;-84
2023/10/29 08:27:26;;;;;;;7.47;1.63;;;12.70;99.90;;;;;;5024658;28;20029;-88
2023/10/29 08:29:56;;;;;;;5.22;1.30;;;12.80;99.90;;;;;;5016061;28;20386;-86
2023/10/29 08:32:21;;;;;;;4.90;1.50;;;12.80;99.90;;;;;;5020137;28;20028;-84
2023/10/29 08:34:47;;;;;;;5.68;1.48;;;12.80;99.90;;;;;;5026255;28;20021;-84
2023/10/29 08:37:12;;;;;;;7.43;1.63;;;12.80;99.90;;;;;;5027092;28;20417;-82
2023/10/29 08:39:38;;;;;;;16.67;2.05;;;12.70;99.90;;;;;;5024922;28;20448;-83
2023/10/29 08:42:04;;;;;;;7.07;1.65;;;12.70;99.90;;;;;;5026547;28;20026;-88
2023/10/29 08:44:29;;;;;;;3.88;1.67;;;12.60;99.90;;;;;;5027590;28;20034;-86
2023/10/29 08:46:56;;;;;;;5.15;1.20;;;12.70;99.90;;;;;;5025984;28;20025;-90
2023/10/29 08:49:21;;;;;;;13.48;1.95;;;12.70;99.90;;;;;;5023899;28;20420;-87
2023/10/29 08:51:47;;;;;;;5.28;1.45;;;12.70;99.90;;;;;;5022777;28;20026;-86
2023/10/29 08:54:13;;;;;;;7.07;1.80;;;12.70;99.90;;;;;;5026838;28;20034;-85
2023/10/29 08:56:38;;;;;;;2.45;1.02;;;12.70;99.90;;;;;;5027229;28;20608;-90
2023/10/29 08:59:05;;;;;;;8.88;1.60;;;12.80;99.90;;;;;;5025085;28;20037;-85
2023/10/29 09:01:33;;;;;;;4.88;1.67;;;12.70;99.90;;;;;;5026155;28;20095;-85
2023/10/29 09:03:59;;;;;;;2.58;1.40;;;12.70;99.90;;;;;;5023261;28;20045;-92
2023/10/29 09:06:25;;;;;;;2.50;1.23;;;12.80;99.90;;;;;;5024234;28;20034;-86
2023/10/29 09:08:51;;;;;;;8.70;1.60;;;12.70;99.90;;;;;;5027443;28;20029;-90
2023/10/29 09:11:17;;;;;;;5.57;1.17;;;12.80;99.90;;;;;;5026953;28;20102;-83
2023/10/29 09:13:45;;;;;;;3.20;1.20;;;12.80;99.90;;;;;;5007707;28;20202;-91
2023/10/29 09:16:11;;;;;;;2.13;0.80;;;12.80;99.90;;;;;;5009062;28;20527;-91
2023/10/29 09:18:37;;;;;;;5.28;1.50;;;12.80;99.90;;;;;;5010099;28;20087;-84
2023/10/29 09:21:03;;;;;;;2.78;1.10;;;12.70;99.90;;;;;;5018357;28;20033;-87
2023/10/29 09:23:29;;;;;;;2.45;1.00;;;12.70;99.90;;;;;;5023809;28;20021;-86
2023/10/29 09:25:55;;;;;;;3.20;1.27;;;12.70;99.90;;;;;;5026482;28;20037;-86
2023/10/29 09:28:21;;;;;;;4.20;1.42;;;12.70;99.90;;;;;;5024753;28;20122;-85
2023/10/29 09:30:46;;;;;;;4.60;1.20;;;12.70;99.90;;;;;;5016122;28;20334;-82
2023/10/29 09:33:13;;;;;;;1.92;0.88;;;12.70;99.90;;;;;;5020179;28;20026;-87
2023/10/29 09:35:39;;;;;;;1.88;1.30;;;12.70;99.90;;;;;;5007640;28;20128;-90
2023/10/29 09:38:05;;;;;;;5.35;1.15;;;12.80;99.90;;;;;;5023336;28;20049;-87
2023/10/29 09:40:31;;;;;;;9.13;1.33;;;12.90;99.90;;;;;;5026029;28;20025;-85
2023/10/29 09:43:02;;;;;;;3.35;1.00;;;12.90;99.90;;;;;;5027621;28;20385;-87
2023/10/29 09:45:27;;;;;;;1.33;1.00;;;13.00;99.90;;;;;;5024915;28;20037;-88
2023/10/29 09:47:55;;;;;;;8.68;1.42;;;13.10;99.90;;;;;;5027729;28;20146;-86
2023/10/29 09:50:22;;;;;;;2.92;1.02;;;13.10;99.90;;;;;;5026411;28;20095;-88
2023/10/29 09:52:55;;;;;;;6.68;1.15;;;13.20;99.90;;;;;;5022415;28;20429;-85
2023/10/29 09:55:22;;;;;;;9.15;1.35;;;13.20;99.90;;;;;;5009738;28;20351;-84
2023/10/29 09:57:49;;;;;;;3.97;1.10;;;13.20;99.90;;;;;;5026558;28;20065;-93
2023/10/29 10:00:16;;;;;;;4.93;1.08;;;13.30;99.90;;;;;;5025651;28;20029;-86
2023/10/29 10:02:55;;;;;;;5.03;1.25;;;13.30;99.90;;;;;;5019133;28;20143;-89
2023/10/29 10:05:24;;;;;;;4.03;1.33;;;13.30;99.90;;;;;;5027658;28;20049;-86
2023/10/29 10:07:53;;;;;;;2.22;0.90;;;13.30;99.90;;;;;;5027573;28;20056;-91
2023/10/29 10:10:20;;;;;;;6.93;2.00;;;13.30;99.90;;;;;;5026553;28;20033;-87
2023/10/29 10:12:50;;;;;;;4.88;1.40;;;13.30;99.90;;;;;;5026978;28;20093;-90
2023/10/29 10:15:17;;;;;;;4.72;0.85;;;13.30;99.90;;;;;;5025269;28;20044;-89
2023/10/29 10:17:58;;;;;;;3.55;1.10;;;13.40;99.90;;;;;;5006598;28;20030;-88
2023/10/29 10:20:24;;;;;;;9.98;1.10;;;13.40;99.90;;;;;;5022238;28;20528;-87
2023/10/29 10:23:03;;;;;;;3.25;1.00;;;13.30;99.90;;;;;;5025222;28;20033;-91
2023/10/29 10:25:30;;;;;;;4.80;1.08;;;13.30;99.90;;;;;;5018341;28;20284;-88
2023/10/29 10:27:57;;;;;;;2.53;1.00;;;13.40;99.90;;;;;;5020521;28;20059;-90
2023/10/29 10:30:27;;;;;;;2.72;1.10;;;13.40;99.90;;;;;;5024183;28;20512;-86
2023/10/29 10:32:54;;;;;;;2.05;1.00;;;13.40;99.90;;;;;;5021775;28;20024;-85
2023/10/29 10:35:20;;;;;;;1.80;0.85;;;13.30;99.90;;;;;;5016999;28;20496;-88
2023/10/29 10:37:55;;;;;;;2.00;0.70;;;13.40;99.90;;;;;;5023710;28;20029;-86
2023/10/29 10:40:26;;;;;;;7.15;0.70;;;13.40;99.90;;;;;;5021655;28;20033;-87
2023/10/29 10:42:55;;;;;;;7.25;1.05;;;13.50;99.90;;;;;;5023942;28;20048;-83
2023/10/29 10:45:29;;;;;;;3.75;1.05;;;13.60;99.90;;;;;;5014590;28;20041;-90
2023/10/29 10:47:59;;;;;;;6.43;1.27;;;13.60;99.90;;;;;;5025460;28;20117;-81
2023/10/29 10:50:25;;;;;;;3.38;1.00;;;13.70;99.90;;;;;;5022232;28;20725;-90
2023/10/29 10:52:52;;;;;;;4.20;1.02;;;13.80;99.90;;;;;;5024379;28;20026;-84
2023/10/29 10:55:18;;;;;;;3.00;1.10;;;13.80;99.90;;;;;;5026150;28;20374;-96
2023/10/29 10:57:44;;;;;;;1.52;0.73;;;13.90;99.90;;;;;;5021433;28;20450;-91
2023/10/29 11:00:13;;;;;;;9.35;3.10;;;13.90;99.90;;;;;;5024032;28;20382;-90
2023/10/29 11:02:41;;;;;;;0.80;0.80;;;13.80;99.90;;;;;;5000033;28;20049;-84
2023/10/29 11:05:13;;;;;;;6.18;2.60;;;13.90;99.90;;;;;;5027525;28;20018;-90
2023/10/29 11:07:42;;;;;;;4.95;2.50;;;13.90;99.90;;;;;;5024880;28;20408;-87
2023/10/29 11:10:11;;;;;;;4.22;2.45;;;13.90;99.90;;;;;;5026978;28;20508;-93
2023/10/29 11:12:38;;;;;;;3.85;1.80;;;13.90;99.90;;;;;;5022008;28;20022;-83
2023/10/29 11:15:20;;;;;;;3.25;1.10;;;14.00;99.90;;;;;;5024399;28;20548;-89
2023/10/29 11:17:50;;;;;;;7.43;1.50;;;14.00;99.90;;;;;;5017994;28;20037;-96
2023/10/29 11:20:46;;;;;;;2.45;0.95;;;14.10;99.90;;;;;;5025002;28;20367;-85
2023/10/29 11:23:30;;;;;;;9.32;2.40;;;14.10;99.90;;;;;;5024739;28;20060;-87
2023/10/29 11:26:23;;;;;;;3.83;1.40;;;14.20;99.90;;;;;;5024112;28;20033;-91
2023/10/29 11:28:55;;;;;;;3.53;1.17;;;14.20;99.90;;;;;;5006419;28;20033;-83
2023/10/29 11:31:22;;;;;;;2.25;0.98;;;14.10;99.90;;;;;;5019139;28;20363;-86
2023/10/29 11:33:57;;;;;;;6.50;1.10;;;14.10;99.90;;;;;;5024981;28;20049;-88
2023/10/29 11:36:35;;;;;;;10.27;2.17;;;14.10;99.90;;;;;;5026178;28;20052;-85
2023/10/29 11:39:16;;;;;;;6.40;3.10;;;14.10;99.90;;;;;;5025748;28;20033;-85
2023/10/29 11:41:45;;;;;;;4.28;2.05;;;14.00;99.90;;;;;;5021698;28;20434;-82
2023/10/29 11:44:29;;;;;;;7.85;2.17;;;14.10;99.90;;;;;;5020609;28;20038;-92
2023/10/29 11:47:02;;;;;;;9.10;5.40;;;14.10;99.90;;;;;;5021018;28;20056;-82
2023/10/29 11:49:44;;;;;;;4.63;1.50;;;14.10;99.90;;;;;;5001920;28;20030;-85
2023/10/29 11:52:09;;;;;;;2.47;1.00;;;14.10;99.90;;;;;;5012218;28;20040;-88
2023/10/29 11:54:37;;;;;;;3.90;1.20;;;14.10;99.90;;;;;;5024898;28;20029;-87
2023/10/29 11:57:05;;;;;;;1.50;1.30;;;14.20;99.90;;;;;;5023662;28;20033;-89
2023/10/29 11:59:31;;;;;;;6.28;1.10;;;14.30;99.90;;;;;;5024192;28;20045;-86
2023/10/29 12:01:57;;;;;;;4.38;0.88;;;14.30;99.90;;;;;;5014204;28;20039;-87
2023/10/29 12:04:32;;;;;;;5.43;1.05;;;14.30;99.90;;;;;;5022091;28;20076;-94
2023/10/29 12:06:58;;;;;;;2.72;1.05;;;14.30;99.90;;;;;;5025644;28;20381;-88
2023/10/29 12:09:27;;;;;;;4.53;0.70;;;14.30;99.90;;;;;;5029643;28;20029;-87
2023/10/29 12:11:55;;;;;;;2.05;0.80;;;14.30;99.90;;;;;;5024664;28;20033;-83
2023/10/29 12:14:42;;;;;;;2.90;1.02;;;14.30;99.90;;;;;;5027528;28;20029;-84
2023/10/29 12:17:08;;;;;;;2.97;0.90;;;14.30;99.90;;;;;;5023190;28;20101;-93
2023/10/29 12:19:41;;;;;;;2.53;0.88;;;14.30;99.90;;;;;;5021553;28;20141;-87
2023/10/29 12:22:13;;;;;;;6.75;1.83;;;14.30;99.90;;;;;;5027021;28;20025;-90
2023/10/29 12:24:39;;;;;;;2.45;1.00;;;14.20;99.90;;;;;;5023463;28;20121;-86
2023/10/29 12:27:05;;;;;;;2.30;1.08;;;14.10;99.90;;;;;;5021285;28;20026;-89
2023/10/29 12:29:34;;;;;;;2.83;1.25;;;14.10;99.90;;;;;;5022972;28;20033;-85
2023/10/29 12:32:01;;;;;;;2.63;0.90;;;14.10;99.90;;;;;;5028644;28;20037;-85
2023/10/29 12:34:27;;;;;;;4.28;0.90;;;14.00;99.90;;;;;;5023028;28;20480;-87
2023/10/29 12:36:54;;;;;;;7.57;1.40;;;14.00;99.90;;;;;;5026529;28;20048;-86
2023/10/29 12:39:19;;;;;;;8.45;1.05;;;14.00;99.90;;;;;;5026985;28;20489;-84
2023/10/29 12:41:54;;;;;;;1.90;0.85;;;14.10;99.90;;;;;;5022980;28;20083;-86
2023/10/29 12:44:21;;;;;;;5.10;0.90;;;14.10;99.90;;;;;;5019967;28;20017;-93
2023/10/29 12:46:50;;;;;;;2.28;0.93;;;14.10;99.90;;;;;;5022093;28;20045;-94